createdAt,value
2023-01-08T00:06:15.114Z,8.50
2023-01-08T00:16:18.692Z,8.41
2023-01-08T00:26:22.906Z,8.36
2023-01-08T00:36:25.444Z,8.26
2023-01-08T00:46:29.230Z,8.32
2023-01-08T00:56:31.740Z,8.23
2023-01-08T01:06:35.536Z,8.06
2023-01-08T01:16:39.943Z,8.13
2023-01-08T01:26:43.908Z,8.14
2023-01-08T01:36:46.774Z,8.12
2023-01-08T01:46:50.929Z,8.07
2023-01-08T01:56:53.477Z,8.20
2023-01-08T02:07:01.365Z,8.27
2023-01-08T02:17:07.598Z,8.29
2023-01-08T02:27:12.594Z,8.41
2023-01-08T02:37:15.143Z,8.32
2023-01-08T02:47:25.098Z,8.21
2023-01-08T02:57:28.748Z,8.24
2023-01-08T03:07:33.276Z,8.24
2023-01-08T03:17:37.303Z,8.23
2023-01-08T03:27:44.040Z,8.16
2023-01-08T03:37:47.904Z,8.20
2023-01-08T03:47:52.219Z,8.14
2023-01-08T03:57:54.659Z,8.18
2023-01-08T04:07:58.587Z,8.16
2023-01-08T04:18:01.079Z,7.93
2023-01-08T04:28:05.074Z,7.65
2023-01-08T04:38:07.521Z,7.84
2023-01-08T04:48:11.376Z,8.03
2023-01-08T04:58:13.858Z,8.20
2023-01-08T05:08:17.725Z,8.25
2023-01-08T05:18:20.158Z,8.29
2023-01-08T05:28:23.989Z,8.32
2023-01-08T05:38:26.535Z,8.06
2023-01-08T05:48:31.203Z,8.12
2023-01-08T05:58:33.682Z,8.26
2023-01-08T06:08:37.704Z,8.26
2023-01-08T06:18:40.280Z,8.21
2023-01-08T06:28:44.131Z,8.42
2023-01-08T06:38:46.595Z,8.03
2023-01-08T06:48:50.412Z,7.93
2023-01-08T06:58:52.895Z,8.14
2023-01-08T07:08:57.611Z,8.14
2023-01-08T07:19:00.104Z,8.20
2023-01-08T07:29:03.963Z,8.27
2023-01-08T07:39:06.471Z,8.36
2023-01-08T07:49:10.495Z,8.36
2023-01-08T07:59:12.962Z,8.51
2023-01-08T08:09:16.783Z,8.50
2023-01-08T08:19:19.274Z,8.62
2023-01-08T08:29:23.360Z,8.56
2023-01-08T08:39:26.011Z,8.53
2023-01-08T08:49:29.880Z,8.66
2023-01-08T08:59:32.586Z,8.64
2023-01-08T09:09:36.406Z,8.81
2023-01-08T09:19:39.587Z,8.77
2023-01-08T09:29:43.436Z,8.85
2023-01-08T09:39:51.002Z,8.86
2023-01-08T09:50:00.262Z,8.93
2023-01-08T10:00:02.858Z,9.05
2023-01-08T10:10:07.481Z,9.06
2023-01-08T10:20:12.170Z,9.32
2023-01-08T10:30:20.374Z,9.40
2023-01-08T10:40:24.800Z,9.45
2023-01-08T10:50:30.282Z,9.55
2023-01-08T11:00:34.371Z,9.73
2023-01-08T11:10:38.411Z,9.84
2023-01-08T11:20:41.937Z,9.89
2023-01-08T11:30:50.082Z,10.08
2023-01-08T11:40:54.263Z,10.23
2023-01-08T11:51:07.349Z,10.22
2023-01-08T12:01:19.469Z,10.35
2023-01-08T12:11:26.127Z,10.37
2023-01-08T12:21:32.572Z,10.43
2023-01-08T12:32:01.510Z,10.44
2023-01-08T12:42:08.786Z,10.34
2023-01-08T12:52:17.191Z,10.36
2023-01-08T13:02:25.880Z,10.27
2023-01-08T13:12:34.330Z,10.39
2023-01-08T13:22:37.984Z,10.34
2023-01-08T13:32:45.695Z,10.39
2023-01-08T13:42:50.034Z,10.50
2023-01-08T13:52:58.039Z,10.85
2023-01-08T14:03:00.622Z,10.98
2023-01-08T14:13:06.992Z,10.88
2023-01-08T14:23:11.474Z,10.85
2023-01-08T14:33:15.551Z,10.70
2023-01-08T14:43:19.232Z,10.67
2023-01-08T14:53:25.131Z,10.61
2023-01-08T15:03:31.403Z,10.66
2023-01-08T15:13:37.979Z,10.59
2023-01-08T15:23:41.734Z,10.59
2023-01-08T15:33:45.750Z,10.45
2023-01-08T15:43:50.076Z,10.43
2023-01-08T15:53:55.316Z,10.39
2023-01-08T16:03:57.841Z,10.44
2023-01-08T16:14:01.657Z,10.50
2023-01-08T16:24:04.230Z,10.46
2023-01-08T16:34:08.066Z,10.44
2023-01-08T16:44:17.200Z,10.43
2023-01-08T16:54:21.580Z,10.37
2023-01-08T17:04:25.932Z,10.23
2023-01-08T17:14:29.872Z,10.30
2023-01-08T17:24:32.449Z,10.27
2023-01-08T17:34:36.378Z,10.29
2023-01-08T17:44:38.900Z,10.24
2023-01-08T17:54:42.781Z,10.02
2023-01-08T18:04:45.913Z,10.10
2023-01-08T18:14:49.734Z,10.06
2023-01-08T18:24:52.241Z,10.05
2023-01-08T18:34:56.564Z,9.95
2023-01-08T18:44:59.097Z,9.95
2023-01-08T18:55:02.925Z,9.95
2023-01-08T19:05:05.662Z,9.82
2023-01-08T19:15:10.061Z,9.76
2023-01-08T19:25:14.819Z,9.85
2023-01-08T19:35:18.698Z,9.79
2023-01-08T19:45:21.284Z,9.82
2023-01-08T19:55:25.282Z,9.82
2023-01-08T20:05:27.823Z,9.84
2023-01-08T20:15:32.429Z,9.78
2023-01-08T20:25:35.273Z,9.72
2023-01-08T20:35:39.218Z,9.66
2023-01-08T20:45:42.254Z,9.65
2023-01-08T20:55:46.401Z,9.65
2023-01-08T21:05:48.935Z,9.83
2023-01-08T21:15:52.843Z,9.74
2023-01-08T21:25:55.976Z,9.59
2023-01-08T21:36:03.260Z,9.53
2023-01-08T21:46:05.840Z,9.43
2023-01-08T21:56:09.785Z,9.39
2023-01-08T22:06:12.573Z,9.41
2023-01-08T22:16:16.525Z,9.30
2023-01-08T22:26:20.441Z,9.12
2023-01-08T22:36:24.628Z,9.11
2023-01-08T22:46:27.419Z,9.04
2023-01-08T22:56:31.504Z,8.77
2023-01-08T23:06:34.376Z,8.92
2023-01-08T23:16:39.144Z,8.70
2023-01-08T23:26:42.335Z,8.68
2023-01-08T23:36:46.544Z,8.75
2023-01-08T23:46:49.135Z,8.65
2023-01-08T23:56:53.492Z,8.76
